createdAt,value
2022-07-31T00:01:21.733Z,18.60
2022-07-31T00:03:50.090Z,18.50
2022-07-31T00:06:19.345Z,18.50
2022-07-31T00:08:47.070Z,18.55
2022-07-31T00:11:16.198Z,18.59
2022-07-31T00:13:56.627Z,18.56
2022-07-31T00:16:26.151Z,18.58
2022-07-31T00:18:54.052Z,18.49
2022-07-31T00:21:21.797Z,18.48
2022-07-31T00:23:49.675Z,18.48
2022-07-31T00:26:18.809Z,18.50
2022-07-31T00:28:47.723Z,18.47
2022-07-31T00:31:15.411Z,18.43
2022-07-31T00:33:43.292Z,18.37
2022-07-31T00:36:11.552Z,18.39
2022-07-31T00:38:39.472Z,18.41
2022-07-31T00:41:07.154Z,18.46
2022-07-31T00:43:36.675Z,18.36
2022-07-31T00:46:04.418Z,18.38
2022-07-31T00:48:32.558Z,18.40
2022-07-31T00:51:01.212Z,18.43
2022-07-31T00:53:29.058Z,18.37
2022-07-31T00:55:57.920Z,18.36
2022-07-31T00:58:26.014Z,18.40
2022-07-31T01:00:55.324Z,18.40
2022-07-31T01:03:23.255Z,18.31
2022-07-31T01:05:51.078Z,18.30
2022-07-31T01:08:18.925Z,18.33
2022-07-31T01:10:53.331Z,18.31
2022-07-31T01:13:26.518Z,18.36
2022-07-31T01:15:56.709Z,18.36
2022-07-31T01:18:26.403Z,18.36
2022-07-31T01:20:56.578Z,18.31
2022-07-31T01:23:55.167Z,18.25
2022-07-31T01:26:35.417Z,18.21
2022-07-31T01:29:11.920Z,18.27
2022-07-31T01:31:43.393Z,18.33
2022-07-31T01:34:17.738Z,18.32
2022-07-31T01:36:49.745Z,18.35
2022-07-31T01:39:18.035Z,18.36
2022-07-31T01:41:47.847Z,18.37
2022-07-31T01:44:19.114Z,18.34
2022-07-31T01:46:47.996Z,18.42
2022-07-31T01:49:17.239Z,18.43
2022-07-31T01:51:46.125Z,18.37
2022-07-31T01:54:15.284Z,18.44
2022-07-31T01:56:43.501Z,18.46
2022-07-31T01:59:18.709Z,18.40
2022-07-31T02:01:50.739Z,18.40
2022-07-31T02:04:19.890Z,18.40
2022-07-31T02:06:48.154Z,18.39
2022-07-31T02:09:16.744Z,18.42
2022-07-31T02:11:53.715Z,18.47
2022-07-31T02:14:22.948Z,18.46
2022-07-31T02:16:52.160Z,18.43
2022-07-31T02:19:20.713Z,18.44
2022-07-31T02:21:51.284Z,18.42
2022-07-31T02:24:19.490Z,18.43
2022-07-31T02:26:48.153Z,18.43
2022-07-31T02:29:19.423Z,18.45
2022-07-31T02:32:03.478Z,18.43
2022-07-31T02:34:34.729Z,18.49
2022-07-31T02:37:03.415Z,18.46
2022-07-31T02:39:32.434Z,18.50
2022-07-31T02:42:01.722Z,18.50
2022-07-31T02:44:34.538Z,18.52
2022-07-31T02:47:05.463Z,18.54
2022-07-31T02:49:34.908Z,18.57
2022-07-31T02:52:04.841Z,18.59
2022-07-31T02:54:33.196Z,18.58
2022-07-31T02:57:01.224Z,18.59
2022-07-31T02:59:29.265Z,18.60
2022-07-31T03:01:57.044Z,18.54
2022-07-31T03:04:24.854Z,18.57
2022-07-31T03:06:53.929Z,18.57
2022-07-31T03:09:21.781Z,18.52
2022-07-31T03:11:49.570Z,18.60
2022-07-31T03:14:17.624Z,18.64
2022-07-31T03:16:46.193Z,18.66
2022-07-31T03:19:14.586Z,18.71
2022-07-31T03:21:42.802Z,18.72
2022-07-31T03:24:12.223Z,18.71
2022-07-31T03:26:39.997Z,18.72
2022-07-31T03:29:41.567Z,18.72
2022-07-31T03:31:55.720Z,18.68
2022-07-31T03:34:23.467Z,18.71
2022-07-31T03:36:52.908Z,18.63
2022-07-31T03:39:22.019Z,18.74
2022-07-31T03:41:51.077Z,18.78
2022-07-31T03:44:20.089Z,18.75
2022-07-31T03:46:47.972Z,18.83
2022-07-31T03:49:16.135Z,18.79
2022-07-31T03:51:44.298Z,18.77
2022-07-31T03:54:12.871Z,18.83
2022-07-31T03:56:45.407Z,18.79
2022-07-31T03:59:14.102Z,18.82
2022-07-31T04:01:58.065Z,18.79
2022-07-31T04:04:26.544Z,18.81
2022-07-31T04:06:54.723Z,18.77
2022-07-31T04:09:22.461Z,18.81
2022-07-31T04:11:51.652Z,18.85
2022-07-31T04:14:19.444Z,18.85
2022-07-31T04:16:47.206Z,18.89
2022-07-31T04:19:15.121Z,18.91
2022-07-31T04:21:42.843Z,18.89
2022-07-31T04:24:11.607Z,18.91
2022-07-31T04:26:39.723Z,18.91
2022-07-31T04:29:08.793Z,18.93
2022-07-31T04:31:36.482Z,18.93
2022-07-31T04:34:04.606Z,18.87
2022-07-31T04:36:32.370Z,18.92
2022-07-31T04:39:00.353Z,18.87
2022-07-31T04:41:28.757Z,18.90
2022-07-31T04:43:57.779Z,18.96
2022-07-31T04:46:27.216Z,18.97
2022-07-31T04:48:55.069Z,18.97
2022-07-31T04:51:24.337Z,18.98
2022-07-31T04:53:52.537Z,19.03
2022-07-31T04:56:37.658Z,18.98
2022-07-31T04:59:07.506Z,19.01
2022-07-31T05:01:37.274Z,19.03
2022-07-31T05:04:09.334Z,18.96
2022-07-31T05:06:38.714Z,19.04
2022-07-31T05:09:09.530Z,18.97
2022-07-31T05:11:41.885Z,18.86
2022-07-31T05:14:11.238Z,18.78
2022-07-31T05:16:40.345Z,18.79
2022-07-31T05:19:14.575Z,18.75
2022-07-31T05:21:48.461Z,18.68
2022-07-31T05:24:32.549Z,18.62
2022-07-31T05:27:02.035Z,18.56
2022-07-31T05:29:29.977Z,18.62
2022-07-31T05:32:00.650Z,18.63
2022-07-31T05:34:30.119Z,18.57
2022-07-31T05:36:58.409Z,18.54
2022-07-31T05:39:26.700Z,18.48
2022-07-31T05:41:54.425Z,18.48
2022-07-31T05:44:22.150Z,18.35
2022-07-31T05:49:18.199Z,18.37
2022-07-31T05:51:46.905Z,18.25
2022-07-31T05:54:15.142Z,18.29
2022-07-31T05:56:42.896Z,18.23
2022-07-31T05:59:10.771Z,18.18
2022-07-31T06:01:39.600Z,18.13
2022-07-31T06:04:07.512Z,18.03
2022-07-31T06:06:36.631Z,17.99
2022-07-31T06:09:05.153Z,18.07
2022-07-31T06:11:33.048Z,18.12
2022-07-31T06:14:00.846Z,18.15
2022-07-31T06:16:28.625Z,18.10
2022-07-31T06:18:56.447Z,18.13
2022-07-31T06:21:27.516Z,18.15
2022-07-31T06:23:59.395Z,18.14
2022-07-31T06:26:27.735Z,18.19
2022-07-31T06:28:55.606Z,18.20
2022-07-31T06:31:23.656Z,18.10
2022-07-31T06:33:51.543Z,18.04
2022-07-31T06:36:20.787Z,17.94
2022-07-31T06:38:48.528Z,18.00
2022-07-31T06:41:31.522Z,18.02
2022-07-31T06:43:59.527Z,17.99
2022-07-31T06:46:27.313Z,17.88
2022-07-31T06:48:55.142Z,17.86
2022-07-31T06:51:31.624Z,17.77
2022-07-31T06:54:00.036Z,17.69
2022-07-31T06:56:29.317Z,17.68
2022-07-31T06:58:57.394Z,17.59
2022-07-31T07:01:25.207Z,17.62
2022-07-31T07:03:53.069Z,17.59
2022-07-31T07:06:23.446Z,17.60
2022-07-31T07:08:53.603Z,17.44
2022-07-31T07:11:22.032Z,17.41
2022-07-31T07:13:51.160Z,17.40
2022-07-31T07:16:18.953Z,17.43
2022-07-31T07:18:47.197Z,17.39
2022-07-31T07:21:14.915Z,17.38
2022-07-31T07:23:42.913Z,17.39
2022-07-31T07:26:11.106Z,17.33
2022-07-31T07:28:40.062Z,17.26
2022-07-31T07:31:09.459Z,17.25
2022-07-31T07:33:40.133Z,17.17
2022-07-31T07:36:22.635Z,17.22
2022-07-31T07:38:53.680Z,17.22
2022-07-31T07:41:23.639Z,17.35
2022-07-31T07:43:52.265Z,17.32
2022-07-31T07:46:22.817Z,17.36
2022-07-31T07:48:51.712Z,17.48
2022-07-31T07:51:20.730Z,17.50
2022-07-31T07:53:48.908Z,17.55
2022-07-31T07:56:16.706Z,17.57
2022-07-31T07:58:44.771Z,17.65
2022-07-31T08:01:12.731Z,17.66
2022-07-31T08:03:48.521Z,17.63
2022-07-31T08:06:19.648Z,17.63
2022-07-31T08:08:47.454Z,17.64
2022-07-31T08:11:17.337Z,17.57
2022-07-31T08:13:50.245Z,17.52
2022-07-31T08:16:19.150Z,17.50
2022-07-31T08:18:48.655Z,17.48
2022-07-31T08:21:16.428Z,17.54
2022-07-31T08:23:44.348Z,17.61
2022-07-31T08:26:13.080Z,17.53
2022-07-31T08:28:49.962Z,17.47
2022-07-31T08:31:20.563Z,17.40
2022-07-31T08:33:49.690Z,17.61
2022-07-31T08:36:17.523Z,17.77
2022-07-31T08:38:45.444Z,17.79
2022-07-31T08:41:15.380Z,17.81
2022-07-31T08:44:00.332Z,17.82
2022-07-31T08:46:32.702Z,17.80
2022-07-31T08:49:03.681Z,17.77
2022-07-31T08:51:32.527Z,18.01
2022-07-31T08:54:20.148Z,18.02
2022-07-31T08:56:52.479Z,18.12
2022-07-31T08:59:21.879Z,18.10
2022-07-31T09:01:50.317Z,18.15
2022-07-31T09:04:19.491Z,18.12
2022-07-31T09:06:47.175Z,18.20
2022-07-31T09:09:16.644Z,18.22
2022-07-31T09:11:49.488Z,18.15
2022-07-31T09:14:27.337Z,18.24
2022-07-31T09:16:55.854Z,18.21
2022-07-31T09:19:54.163Z,18.23
2022-07-31T09:22:23.868Z,18.18
2022-07-31T09:24:52.183Z,18.27
2022-07-31T09:27:21.911Z,18.15
2022-07-31T09:29:50.268Z,18.09
2022-07-31T09:32:22.097Z,18.10
2022-07-31T09:34:51.319Z,18.12
2022-07-31T09:37:21.623Z,18.05
2022-07-31T09:39:52.988Z,17.92
2022-07-31T09:42:24.506Z,17.99
2022-07-31T09:44:52.902Z,17.88
2022-07-31T09:47:22.295Z,17.83
2022-07-31T09:49:55.932Z,17.74
2022-07-31T09:52:24.210Z,17.56
2022-07-31T09:55:15.999Z,17.74
2022-07-31T09:57:52.721Z,17.79
2022-07-31T10:00:20.558Z,17.81
2022-07-31T10:02:49.289Z,17.68
2022-07-31T10:05:18.883Z,17.81
2022-07-31T10:07:47.621Z,17.76
2022-07-31T10:10:15.819Z,17.60
2022-07-31T10:12:46.837Z,17.63
2022-07-31T10:15:15.249Z,17.70
2022-07-31T10:17:45.691Z,17.68
2022-07-31T10:20:20.566Z,17.53
2022-07-31T10:22:51.658Z,17.55
2022-07-31T10:25:23.639Z,17.65
2022-07-31T10:27:51.608Z,17.55
2022-07-31T10:30:19.382Z,17.54
2022-07-31T10:32:47.507Z,17.59
2022-07-31T10:35:17.356Z,17.56
2022-07-31T10:37:53.237Z,17.46
2022-07-31T10:40:28.898Z,17.56
2022-07-31T10:43:03.454Z,17.32
2022-07-31T10:45:31.932Z,17.36
2022-07-31T10:48:01.510Z,17.33
2022-07-31T10:50:30.786Z,17.29
2022-07-31T10:53:10.017Z,17.27
2022-07-31T10:55:37.795Z,17.36
2022-07-31T10:58:10.277Z,17.37
2022-07-31T11:00:39.022Z,17.47
2022-07-31T11:03:14.951Z,17.36
2022-07-31T11:06:01.569Z,17.37
2022-07-31T11:08:42.142Z,17.31
2022-07-31T11:11:10.712Z,17.43
2022-07-31T11:13:49.804Z,17.44
2022-07-31T11:16:18.085Z,17.50
2022-07-31T11:18:47.481Z,17.49
2022-07-31T11:21:37.737Z,17.32
2022-07-31T11:24:13.348Z,17.30
2022-07-31T11:26:43.868Z,17.25
2022-07-31T11:30:01.550Z,17.30
2022-07-31T11:32:14.289Z,17.26
2022-07-31T11:34:50.034Z,17.20
2022-07-31T11:37:20.522Z,17.20
2022-07-31T11:39:51.274Z,17.30
2022-07-31T11:42:19.959Z,17.18
2022-07-31T11:44:54.539Z,17.29
2022-07-31T11:48:09.691Z,17.14
2022-07-31T11:50:19.327Z,17.02
2022-07-31T11:52:47.698Z,17.00
2022-07-31T11:55:17.377Z,17.00
2022-07-31T11:57:50.878Z,17.04
2022-07-31T12:00:26.679Z,17.14
2022-07-31T12:02:58.542Z,16.92
2022-07-31T12:05:38.761Z,16.80
2022-07-31T12:08:08.121Z,16.67
2022-07-31T12:10:37.645Z,16.61
2022-07-31T12:13:05.343Z,16.69
2022-07-31T12:15:34.694Z,16.60
2022-07-31T12:18:03.284Z,16.60
2022-07-31T12:20:38.487Z,16.62
2022-07-31T12:23:07.650Z,16.74
2022-07-31T12:25:56.751Z,16.50
2022-07-31T12:28:25.014Z,16.69
2022-07-31T12:31:00.102Z,16.65
2022-07-31T12:33:28.577Z,16.69
2022-07-31T12:35:57.272Z,16.71
2022-07-31T12:38:47.741Z,16.67
2022-07-31T12:41:16.032Z,16.74
2022-07-31T12:43:51.682Z,16.70
2022-07-31T12:46:24.260Z,16.85
2022-07-31T12:48:52.274Z,16.75
2022-07-31T12:51:45.463Z,16.89
2022-07-31T12:54:10.100Z,16.75
2022-07-31T12:56:40.616Z,16.71
2022-07-31T12:59:09.362Z,16.72
2022-07-31T13:01:38.000Z,16.59
2022-07-31T13:04:08.035Z,16.54
2022-07-31T13:06:50.100Z,16.55
2022-07-31T13:09:18.262Z,16.48
2022-07-31T13:11:48.459Z,16.54
2022-07-31T13:14:17.089Z,16.45
2022-07-31T13:16:45.351Z,16.54
2022-07-31T13:19:13.990Z,16.51
2022-07-31T13:21:49.129Z,16.53
2022-07-31T13:24:18.904Z,16.56
2022-07-31T13:26:48.678Z,16.58
2022-07-31T13:29:16.943Z,16.59
2022-07-31T13:31:44.775Z,16.64
2022-07-31T13:34:13.001Z,16.49
2022-07-31T13:36:41.107Z,16.63
2022-07-31T13:39:09.078Z,16.54
2022-07-31T13:41:39.062Z,16.41
2022-07-31T13:44:09.547Z,16.51
2022-07-31T13:46:37.919Z,16.66
2022-07-31T13:49:08.607Z,16.54
2022-07-31T13:51:37.222Z,16.54
2022-07-31T13:54:05.359Z,16.64
2022-07-31T13:56:34.050Z,16.54
2022-07-31T13:59:11.377Z,16.48
2022-07-31T14:02:04.782Z,16.50
2022-07-31T14:04:28.600Z,16.42
2022-07-31T14:07:04.695Z,16.38
2022-07-31T14:09:35.522Z,16.27
2022-07-31T14:12:05.649Z,16.26
2022-07-31T14:14:35.156Z,16.35
2022-07-31T14:17:03.084Z,16.27
2022-07-31T14:19:30.825Z,16.35
2022-07-31T14:22:11.844Z,16.36
2022-07-31T14:24:40.852Z,16.36
2022-07-31T14:27:08.693Z,16.35
2022-07-31T14:29:38.893Z,16.28
2022-07-31T14:32:07.769Z,16.29
2022-07-31T14:34:36.137Z,16.17
2022-07-31T14:37:04.825Z,16.32
2022-07-31T14:39:32.970Z,16.40
2022-07-31T14:42:00.789Z,16.42
2022-07-31T14:44:29.160Z,16.43
2022-07-31T14:46:58.361Z,16.48
2022-07-31T14:49:26.165Z,16.53
2022-07-31T14:52:13.794Z,16.56
2022-07-31T14:54:43.207Z,16.47
2022-07-31T14:57:10.919Z,16.49
2022-07-31T14:59:38.658Z,16.36
2022-07-31T15:02:07.808Z,16.44
2022-07-31T15:04:35.633Z,16.49
2022-07-31T15:07:32.374Z,16.34
2022-07-31T15:09:51.233Z,16.28
2022-07-31T15:12:19.842Z,16.30
2022-07-31T15:14:47.652Z,16.28
2022-07-31T15:17:16.832Z,16.28
2022-07-31T15:19:44.658Z,16.20
2022-07-31T15:22:16.251Z,16.15
2022-07-31T15:24:48.203Z,16.18
2022-07-31T15:27:17.996Z,16.08
2022-07-31T15:30:03.417Z,16.13
2022-07-31T15:32:36.378Z,16.17
2022-07-31T15:35:04.899Z,16.19
2022-07-31T15:37:35.348Z,16.21
2022-07-31T15:40:04.877Z,16.16
2022-07-31T15:42:32.884Z,16.11
2022-07-31T15:45:00.708Z,16.03
2022-07-31T15:47:28.430Z,16.09
2022-07-31T15:49:57.707Z,16.13
2022-07-31T15:52:25.702Z,16.14
2022-07-31T15:54:53.604Z,16.14
2022-07-31T15:57:21.902Z,16.18
2022-07-31T15:59:49.915Z,16.01
2022-07-31T16:02:18.090Z,16.04
2022-07-31T16:04:52.569Z,16.11
2022-07-31T16:08:31.293Z,16.13
2022-07-31T16:10:16.295Z,16.04
2022-07-31T16:12:45.907Z,16.01
2022-07-31T16:15:14.857Z,16.00
2022-07-31T16:17:45.198Z,16.05
2022-07-31T16:20:25.673Z,15.85
2022-07-31T16:22:57.993Z,15.91
2022-07-31T16:25:27.422Z,15.98
2022-07-31T16:27:55.483Z,16.00
2022-07-31T16:30:23.548Z,16.02
2022-07-31T16:32:51.670Z,15.97
2022-07-31T16:35:20.019Z,15.92
2022-07-31T16:37:49.972Z,15.96
2022-07-31T16:40:28.434Z,15.96
2022-07-31T16:42:57.590Z,15.85
2022-07-31T16:45:25.545Z,15.86
2022-07-31T16:47:53.676Z,15.81
2022-07-31T16:50:22.682Z,15.72
2022-07-31T16:52:54.645Z,15.77
2022-07-31T16:55:46.183Z,15.73
2022-07-31T16:58:13.903Z,15.63
2022-07-31T17:00:41.821Z,15.70
2022-07-31T17:03:59.325Z,15.66
2022-07-31T17:05:57.907Z,15.61
2022-07-31T17:08:25.797Z,15.69
2022-07-31T17:10:59.045Z,15.70
2022-07-31T17:13:27.023Z,15.63
2022-07-31T17:15:54.797Z,15.62
2022-07-31T17:18:25.388Z,15.50
2022-07-31T17:20:55.922Z,15.59
2022-07-31T17:23:44.076Z,15.53
2022-07-31T17:26:21.156Z,15.59
2022-07-31T17:28:49.817Z,15.61
2022-07-31T17:31:18.202Z,15.56
2022-07-31T17:33:54.677Z,15.56
2022-07-31T17:36:27.854Z,15.54
2022-07-31T17:38:55.628Z,15.50
2022-07-31T17:41:26.100Z,15.50
2022-07-31T17:43:54.680Z,15.49
2022-07-31T17:46:34.341Z,15.47
2022-07-31T17:49:04.874Z,15.46
2022-07-31T17:51:33.155Z,15.50
2022-07-31T17:54:01.307Z,15.54
2022-07-31T17:56:30.606Z,15.50
2022-07-31T17:59:04.375Z,15.48
2022-07-31T18:01:33.871Z,15.46
2022-07-31T18:04:02.072Z,15.34
2022-07-31T18:06:29.927Z,15.31
2022-07-31T18:08:58.179Z,15.33
2022-07-31T18:11:26.460Z,15.37
2022-07-31T18:14:03.052Z,15.36
2022-07-31T18:16:31.790Z,15.41
2022-07-31T18:18:59.962Z,15.41
2022-07-31T18:21:27.921Z,15.37
2022-07-31T18:23:56.042Z,15.33
2022-07-31T18:26:24.604Z,15.33
2022-07-31T18:28:52.591Z,15.31
2022-07-31T18:31:32.219Z,15.26
2022-07-31T18:34:05.571Z,15.34
2022-07-31T18:36:33.519Z,15.38
2022-07-31T18:39:01.710Z,15.40
2022-07-31T18:41:30.900Z,15.39
2022-07-31T18:43:59.310Z,15.43
2022-07-31T18:46:28.518Z,15.39
2022-07-31T18:48:57.118Z,15.35
2022-07-31T18:51:25.171Z,15.39
2022-07-31T18:53:54.300Z,15.39
2022-07-31T18:56:23.922Z,15.40
2022-07-31T18:58:51.908Z,15.33
2022-07-31T19:01:19.819Z,15.37
2022-07-31T19:03:49.463Z,15.28
2022-07-31T19:06:17.226Z,15.36
2022-07-31T19:08:46.062Z,15.32
2022-07-31T19:11:14.434Z,15.40
2022-07-31T19:13:42.279Z,15.39
2022-07-31T19:16:15.049Z,15.41
2022-07-31T19:18:45.862Z,15.42
2022-07-31T19:21:35.508Z,15.40
2022-07-31T19:24:09.205Z,15.34
2022-07-31T19:26:38.304Z,15.40
2022-07-31T19:29:06.372Z,15.42
2022-07-31T19:31:34.226Z,15.44
2022-07-31T19:34:02.079Z,15.48
2022-07-31T19:36:31.245Z,15.44
2022-07-31T19:38:59.047Z,15.37
2022-07-31T19:41:27.588Z,15.35
2022-07-31T19:43:55.306Z,15.39
2022-07-31T19:46:23.183Z,15.39
2022-07-31T19:48:51.298Z,15.37
2022-07-31T19:51:19.293Z,15.34
2022-07-31T19:53:48.391Z,15.28
2022-07-31T19:56:20.679Z,15.30
2022-07-31T19:58:49.940Z,15.30
2022-07-31T20:01:21.387Z,15.20
2022-07-31T20:03:50.731Z,15.23
2022-07-31T20:06:21.004Z,15.18
2022-07-31T20:08:50.228Z,15.12
2022-07-31T20:11:18.326Z,15.10
2022-07-31T20:13:46.196Z,15.11
2022-07-31T20:16:15.980Z,15.11
2022-07-31T20:18:43.951Z,15.18
2022-07-31T20:21:12.293Z,15.10
2022-07-31T20:23:41.676Z,15.08
2022-07-31T20:26:13.783Z,15.03
2022-07-31T20:28:41.942Z,15.05
2022-07-31T20:31:18.501Z,15.06
2022-07-31T20:33:57.942Z,15.00
2022-07-31T20:36:26.900Z,15.00
2022-07-31T20:38:54.931Z,15.00
2022-07-31T20:41:24.039Z,15.01
2022-07-31T20:43:55.633Z,14.98
2022-07-31T20:46:23.711Z,15.01
2022-07-31T20:48:51.549Z,14.99
2022-07-31T20:51:20.519Z,14.94
2022-07-31T20:53:49.197Z,14.93
2022-07-31T20:56:17.556Z,14.90
2022-07-31T20:58:51.397Z,14.89
2022-07-31T21:01:20.182Z,14.87
2022-07-31T21:03:48.225Z,14.83
2022-07-31T21:06:15.990Z,14.85
2022-07-31T21:08:43.704Z,14.90
2022-07-31T21:11:11.520Z,14.89
2022-07-31T21:13:39.410Z,14.86
2022-07-31T21:16:08.696Z,14.77
2022-07-31T21:18:41.212Z,14.84
2022-07-31T21:21:10.672Z,14.83
2022-07-31T21:23:38.583Z,14.76
2022-07-31T21:26:07.720Z,14.75
2022-07-31T21:28:35.735Z,14.79
2022-07-31T21:31:04.376Z,14.76
2022-07-31T21:33:34.141Z,14.80
2022-07-31T21:36:02.439Z,14.87
2022-07-31T21:38:30.474Z,14.82
2022-07-31T21:40:58.627Z,14.85
2022-07-31T21:43:30.384Z,14.73
2022-07-31T21:46:20.729Z,14.71
2022-07-31T21:48:51.650Z,14.74
2022-07-31T21:51:19.937Z,14.73
2022-07-31T21:53:47.720Z,14.74
2022-07-31T21:56:17.115Z,14.71
2022-07-31T21:58:45.174Z,14.66
2022-07-31T22:01:15.015Z,14.70
2022-07-31T22:03:43.131Z,14.66
2022-07-31T22:06:29.582Z,14.68
2022-07-31T22:08:57.259Z,14.65
2022-07-31T22:11:24.979Z,14.64
2022-07-31T22:13:52.682Z,14.66
2022-07-31T22:16:20.453Z,14.61
2022-07-31T22:18:49.553Z,14.67
2022-07-31T22:21:19.538Z,14.70
2022-07-31T22:23:47.668Z,14.67
2022-07-31T22:26:16.431Z,14.74
2022-07-31T22:28:44.396Z,14.75
2022-07-31T22:31:12.393Z,14.72
2022-07-31T22:33:40.261Z,14.72
2022-07-31T22:36:08.970Z,14.76
2022-07-31T22:38:38.278Z,14.75
2022-07-31T22:41:06.199Z,14.72
2022-07-31T22:44:09.992Z,14.73
2022-07-31T22:46:22.910Z,14.76
2022-07-31T22:48:50.885Z,14.80
2022-07-31T22:51:18.775Z,14.79
2022-07-31T22:53:50.194Z,14.73
2022-07-31T22:56:18.215Z,14.78
2022-07-31T22:58:45.915Z,14.76
2022-07-31T23:01:13.790Z,14.75
2022-07-31T23:03:41.501Z,14.76
2022-07-31T23:06:30.625Z,14.72
2022-07-31T23:08:58.316Z,14.64
2022-07-31T23:11:27.154Z,14.68
2022-07-31T23:13:54.959Z,14.61
2022-07-31T23:16:22.766Z,14.71
2022-07-31T23:18:50.921Z,14.65
2022-07-31T23:21:19.646Z,14.60
2022-07-31T23:23:48.535Z,14.57
2022-07-31T23:26:18.854Z,14.65
2022-07-31T23:28:46.899Z,14.59
2022-07-31T23:31:14.642Z,14.59
2022-07-31T23:33:42.849Z,14.60
2022-07-31T23:36:10.572Z,14.61
2022-07-31T23:38:38.305Z,14.57
2022-07-31T23:41:06.163Z,14.52
2022-07-31T23:43:34.362Z,14.48
2022-07-31T23:46:02.192Z,14.47
2022-07-31T23:48:30.230Z,14.47
2022-07-31T23:50:58.143Z,14.44
2022-07-31T23:53:25.898Z,14.50
2022-07-31T23:55:53.596Z,14.52
2022-07-31T23:58:21.767Z,14.45
